sensor_id;sensor_type;location;lat;lon;timestamp;P1;durP1;ratioP1;P2;durP2;ratioP2
57321;SDS011;43159;51.006;18.224;2022-07-06T00:01:41;26.30;;;13.30;;
57321;SDS011;43159;51.006;18.224;2022-07-06T00:04:25;28.30;;;13.60;;
57321;SDS011;43159;51.006;18.224;2022-07-06T00:07:09;27.60;;;12.70;;
57321;SDS011;43159;51.006;18.224;2022-07-06T00:09:53;29.60;;;12.60;;
57321;SDS011;43159;51.006;18.224;2022-07-06T00:12:37;34.10;;;13.10;;
57321;SDS011;43159;51.006;18.224;2022-07-06T00:15:21;30.80;;;13.10;;
57321;SDS011;43159;51.006;18.224;2022-07-06T00:18:05;37.40;;;12.90;;
57321;SDS011;43159;51.006;18.224;2022-07-06T00:20:49;37.80;;;13.00;;
57321;SDS011;43159;51.006;18.224;2022-07-06T00:23:33;38.70;;;12.30;;
57321;SDS011;43159;51.006;18.224;2022-07-06T00:26:18;36.80;;;13.40;;
57321;SDS011;43159;51.006;18.224;2022-07-06T00:29:03;26.80;;;12.70;;
57321;SDS011;43159;51.006;18.224;2022-07-06T00:31:46;28.90;;;12.50;;
57321;SDS011;43159;51.006;18.224;2022-07-06T00:34:31;28.20;;;13.00;;
57321;SDS011;43159;51.006;18.224;2022-07-06T00:37:15;27.60;;;14.40;;
57321;SDS011;43159;51.006;18.224;2022-07-06T00:39:59;28.70;;;13.50;;
57321;SDS011;43159;51.006;18.224;2022-07-06T00:42:44;26.90;;;14.50;;
57321;SDS011;43159;51.006;18.224;2022-07-06T00:45:29;30.50;;;14.60;;
57321;SDS011;43159;51.006;18.224;2022-07-06T00:48:14;26.90;;;13.40;;
57321;SDS011;43159;51.006;18.224;2022-07-06T00:50:59;28.10;;;14.00;;
57321;SDS011;43159;51.006;18.224;2022-07-06T00:53:43;27.10;;;13.00;;
57321;SDS011;43159;51.006;18.224;2022-07-06T00:56:29;27.50;;;12.30;;
57321;SDS011;43159;51.006;18.224;2022-07-06T00:59:15;33.70;;;13.90;;
57321;SDS011;43159;51.006;18.224;2022-07-06T01:01:59;32.10;;;12.70;;
57321;SDS011;43159;51.006;18.224;2022-07-06T01:04:43;31.50;;;13.20;;
57321;SDS011;43159;51.006;18.224;2022-07-06T01:07:27;26.80;;;13.20;;
57321;SDS011;43159;51.006;18.224;2022-07-06T01:10:13;33.80;;;14.40;;
57321;SDS011;43159;51.006;18.224;2022-07-06T01:12:58;55.80;;;15.30;;
57321;SDS011;43159;51.006;18.224;2022-07-06T01:15:42;41.30;;;15.10;;
57321;SDS011;43159;51.006;18.224;2022-07-06T01:18:26;102.90;;;17.40;;
57321;SDS011;43159;51.006;18.224;2022-07-06T01:21:11;78.90;;;16.60;;
57321;SDS011;43159;51.006;18.224;2022-07-06T01:23:56;195.90;;;21.60;;
57321;SDS011;43159;51.006;18.224;2022-07-06T01:26:40;142.20;;;16.80;;
57321;SDS011;43159;51.006;18.224;2022-07-06T01:29:25;118.50;;;16.50;;
57321;SDS011;43159;51.006;18.224;2022-07-06T01:32:09;436.80;;;19.80;;
57321;SDS011;43159;51.006;18.224;2022-07-06T01:34:53;361.40;;;17.40;;
57321;SDS011;43159;51.006;18.224;2022-07-06T01:37:38;29.20;;;12.20;;
57321;SDS011;43159;51.006;18.224;2022-07-06T01:40:22;77.50;;;12.10;;
57321;SDS011;43159;51.006;18.224;2022-07-06T01:43:06;46.10;;;13.50;;
57321;SDS011;43159;51.006;18.224;2022-07-06T01:45:50;51.00;;;14.10;;
57321;SDS011;43159;51.006;18.224;2022-07-06T01:48:34;47.00;;;13.90;;
57321;SDS011;43159;51.006;18.224;2022-07-06T01:51:19;52.60;;;13.30;;
57321;SDS011;43159;51.006;18.224;2022-07-06T01:54:03;110.40;;;13.70;;
57321;SDS011;43159;51.006;18.224;2022-07-06T01:56:47;65.20;;;11.00;;
57321;SDS011;43159;51.006;18.224;2022-07-06T01:59:31;59.40;;;12.90;;
57321;SDS011;43159;51.006;18.224;2022-07-06T02:02:15;72.30;;;12.90;;
57321;SDS011;43159;51.006;18.224;2022-07-06T02:05:01;164.30;;;17.40;;
57321;SDS011;43159;51.006;18.224;2022-07-06T02:07:45;36.60;;;11.20;;
57321;SDS011;43159;51.006;18.224;2022-07-06T02:10:29;46.60;;;11.50;;
57321;SDS011;43159;51.006;18.224;2022-07-06T02:13:13;45.90;;;11.30;;
57321;SDS011;43159;51.006;18.224;2022-07-06T02:15:57;69.20;;;12.10;;
57321;SDS011;43159;51.006;18.224;2022-07-06T02:18:41;60.90;;;11.20;;
57321;SDS011;43159;51.006;18.224;2022-07-06T02:21:25;73.80;;;12.10;;
57321;SDS011;43159;51.006;18.224;2022-07-06T02:24:09;127.90;;;15.10;;
57321;SDS011;43159;51.006;18.224;2022-07-06T02:26:53;62.80;;;11.40;;
57321;SDS011;43159;51.006;18.224;2022-07-06T02:29:37;68.80;;;11.70;;
57321;SDS011;43159;51.006;18.224;2022-07-06T02:32:21;38.10;;;10.50;;
57321;SDS011;43159;51.006;18.224;2022-07-06T02:35:06;39.60;;;10.80;;
57321;SDS011;43159;51.006;18.224;2022-07-06T02:37:50;37.20;;;10.00;;
57321;SDS011;43159;51.006;18.224;2022-07-06T02:40:35;71.20;;;9.80;;
57321;SDS011;43159;51.006;18.224;2022-07-06T02:43:19;47.80;;;9.80;;
57321;SDS011;43159;51.006;18.224;2022-07-06T02:46:03;39.80;;;9.40;;
57321;SDS011;43159;51.006;18.224;2022-07-06T02:48:47;30.00;;;9.40;;
57321;SDS011;43159;51.006;18.224;2022-07-06T02:51:33;27.30;;;9.50;;
57321;SDS011;43159;51.006;18.224;2022-07-06T02:54:17;35.70;;;9.60;;
57321;SDS011;43159;51.006;18.224;2022-07-06T02:57:01;32.70;;;9.20;;
57321;SDS011;43159;51.006;18.224;2022-07-06T02:59:45;41.50;;;9.40;;
57321;SDS011;43159;51.006;18.224;2022-07-06T03:02:30;38.30;;;8.70;;
57321;SDS011;43159;51.006;18.224;2022-07-06T03:05:14;29.60;;;8.60;;
57321;SDS011;43159;51.006;18.224;2022-07-06T03:07:58;37.60;;;10.20;;
57321;SDS011;43159;51.006;18.224;2022-07-06T03:10:42;30.10;;;10.10;;
57321;SDS011;43159;51.006;18.224;2022-07-06T03:13:27;22.30;;;10.50;;
57321;SDS011;43159;51.006;18.224;2022-07-06T03:16:12;19.70;;;10.30;;
57321;SDS011;43159;51.006;18.224;2022-07-06T03:18:56;24.90;;;10.50;;
57321;SDS011;43159;51.006;18.224;2022-07-06T03:21:40;24.20;;;10.60;;
57321;SDS011;43159;51.006;18.224;2022-07-06T03:24:25;34.80;;;11.00;;
57321;SDS011;43159;51.006;18.224;2022-07-06T03:27:09;33.80;;;11.20;;
57321;SDS011;43159;51.006;18.224;2022-07-06T03:29:53;53.70;;;11.00;;
57321;SDS011;43159;51.006;18.224;2022-07-06T03:32:37;53.70;;;11.20;;
57321;SDS011;43159;51.006;18.224;2022-07-06T03:35:21;44.70;;;10.90;;
57321;SDS011;43159;51.006;18.224;2022-07-06T03:38:05;53.60;;;11.00;;
57321;SDS011;43159;51.006;18.224;2022-07-06T03:40:49;39.90;;;10.80;;
57321;SDS011;43159;51.006;18.224;2022-07-06T03:43:33;53.90;;;11.40;;
57321;SDS011;43159;51.006;18.224;2022-07-06T03:46:17;54.50;;;13.10;;
57321;SDS011;43159;51.006;18.224;2022-07-06T03:49:02;68.20;;;13.90;;
57321;SDS011;43159;51.006;18.224;2022-07-06T03:51:47;56.90;;;13.40;;
57321;SDS011;43159;51.006;18.224;2022-07-06T03:54:31;57.70;;;13.50;;
57321;SDS011;43159;51.006;18.224;2022-07-06T03:57:15;110.30;;;17.00;;
57321;SDS011;43159;51.006;18.224;2022-07-06T04:00:00;122.10;;;17.10;;
57321;SDS011;43159;51.006;18.224;2022-07-06T04:02:45;67.60;;;15.40;;
57321;SDS011;43159;51.006;18.224;2022-07-06T04:05:29;46.60;;;13.50;;
57321;SDS011;43159;51.006;18.224;2022-07-06T04:08:14;41.60;;;12.70;;
57321;SDS011;43159;51.006;18.224;2022-07-06T04:10:58;76.30;;;13.00;;
57321;SDS011;43159;51.006;18.224;2022-07-06T04:13:42;98.50;;;21.00;;
57321;SDS011;43159;51.006;18.224;2022-07-06T04:16:27;130.00;;;27.10;;
57321;SDS011;43159;51.006;18.224;2022-07-06T04:19:11;103.50;;;27.00;;
57321;SDS011;43159;51.006;18.224;2022-07-06T04:21:55;75.50;;;20.40;;
57321;SDS011;43159;51.006;18.224;2022-07-06T04:24:39;68.00;;;18.00;;
57321;SDS011;43159;51.006;18.224;2022-07-06T04:27:23;95.50;;;15.70;;
57321;SDS011;43159;51.006;18.224;2022-07-06T04:30:08;126.20;;;16.10;;
57321;SDS011;43159;51.006;18.224;2022-07-06T04:32:52;177.10;;;17.70;;
57321;SDS011;43159;51.006;18.224;2022-07-06T04:35:36;113.20;;;15.00;;
57321;SDS011;43159;51.006;18.224;2022-07-06T04:38:20;56.10;;;15.10;;
57321;SDS011;43159;51.006;18.224;2022-07-06T04:41:05;62.70;;;15.50;;
57321;SDS011;43159;51.006;18.224;2022-07-06T04:43:49;44.20;;;15.80;;
57321;SDS011;43159;51.006;18.224;2022-07-06T04:46:33;28.00;;;17.80;;
57321;SDS011;43159;51.006;18.224;2022-07-06T04:49:17;27.50;;;20.00;;
57321;SDS011;43159;51.006;18.224;2022-07-06T04:52:01;27.30;;;17.80;;
57321;SDS011;43159;51.006;18.224;2022-07-06T04:54:45;25.40;;;17.10;;
57321;SDS011;43159;51.006;18.224;2022-07-06T04:57:29;23.70;;;15.50;;
57321;SDS011;43159;51.006;18.224;2022-07-06T05:00:13;20.20;;;13.50;;
57321;SDS011;43159;51.006;18.224;2022-07-06T05:02:58;20.60;;;12.50;;
57321;SDS011;43159;51.006;18.224;2022-07-06T05:05:42;19.60;;;13.10;;
57321;SDS011;43159;51.006;18.224;2022-07-06T05:08:26;22.00;;;11.80;;
57321;SDS011;43159;51.006;18.224;2022-07-06T05:11:10;19.60;;;11.30;;
57321;SDS011;43159;51.006;18.224;2022-07-06T05:13:54;18.20;;;11.70;;
57321;SDS011;43159;51.006;18.224;2022-07-06T05:16:38;18.60;;;11.10;;
57321;SDS011;43159;51.006;18.224;2022-07-06T05:19:22;17.70;;;10.90;;
57321;SDS011;43159;51.006;18.224;2022-07-06T05:22:06;17.30;;;10.50;;
57321;SDS011;43159;51.006;18.224;2022-07-06T05:24:51;15.90;;;9.10;;
57321;SDS011;43159;51.006;18.224;2022-07-06T05:27:35;17.30;;;10.10;;
57321;SDS011;43159;51.006;18.224;2022-07-06T05:30:19;15.20;;;10.40;;
57321;SDS011;43159;51.006;18.224;2022-07-06T05:33:03;17.80;;;10.00;;
57321;SDS011;43159;51.006;18.224;2022-07-06T05:35:47;17.90;;;10.20;;
57321;SDS011;43159;51.006;18.224;2022-07-06T05:38:31;18.20;;;10.30;;
57321;SDS011;43159;51.006;18.224;2022-07-06T05:41:15;17.20;;;11.20;;
57321;SDS011;43159;51.006;18.224;2022-07-06T05:43:59;16.90;;;11.10;;
57321;SDS011;43159;51.006;18.224;2022-07-06T05:46:43;17.30;;;11.30;;
57321;SDS011;43159;51.006;18.224;2022-07-06T05:49:27;16.90;;;11.40;;
57321;SDS011;43159;51.006;18.224;2022-07-06T05:52:31;20.00;;;12.40;;
57321;SDS011;43159;51.006;18.224;2022-07-06T05:55:15;18.80;;;12.10;;
57321;SDS011;43159;51.006;18.224;2022-07-06T05:57:59;19.10;;;13.10;;
57321;SDS011;43159;51.006;18.224;2022-07-06T06:00:43;19.00;;;12.80;;
57321;SDS011;43159;51.006;18.224;2022-07-06T06:03:28;18.90;;;12.90;;
57321;SDS011;43159;51.006;18.224;2022-07-06T06:06:12;19.70;;;14.30;;
57321;SDS011;43159;51.006;18.224;2022-07-06T06:08:56;22.70;;;15.20;;
57321;SDS011;43159;51.006;18.224;2022-07-06T06:11:40;23.30;;;16.10;;
57321;SDS011;43159;51.006;18.224;2022-07-06T06:14:24;27.40;;;17.40;;
57321;SDS011;43159;51.006;18.224;2022-07-06T06:17:08;26.50;;;17.40;;
57321;SDS011;43159;51.006;18.224;2022-07-06T06:19:54;27.10;;;17.80;;
57321;SDS011;43159;51.006;18.224;2022-07-06T06:22:51;27.70;;;19.00;;
57321;SDS011;43159;51.006;18.224;2022-07-06T06:25:37;22.60;;;17.70;;
57321;SDS011;43159;51.006;18.224;2022-07-06T06:28:22;21.50;;;16.90;;
57321;SDS011;43159;51.006;18.224;2022-07-06T06:31:06;24.00;;;16.60;;
57321;SDS011;43159;51.006;18.224;2022-07-06T06:33:50;21.20;;;14.80;;
57321;SDS011;43159;51.006;18.224;2022-07-06T06:36:34;17.60;;;12.20;;
57321;SDS011;43159;51.006;18.224;2022-07-06T06:39:18;18.70;;;11.30;;
57321;SDS011;43159;51.006;18.224;2022-07-06T06:42:02;17.90;;;10.70;;
57321;SDS011;43159;51.006;18.224;2022-07-06T06:44:47;14.10;;;9.30;;
57321;SDS011;43159;51.006;18.224;2022-07-06T06:47:31;16.60;;;8.30;;
57321;SDS011;43159;51.006;18.224;2022-07-06T06:50:15;14.40;;;7.40;;
57321;SDS011;43159;51.006;18.224;2022-07-06T06:53:01;13.50;;;6.90;;
57321;SDS011;43159;51.006;18.224;2022-07-06T06:55:46;12.90;;;6.60;;
57321;SDS011;43159;51.006;18.224;2022-07-06T06:58:30;12.50;;;6.10;;
57321;SDS011;43159;51.006;18.224;2022-07-06T07:01:14;12.00;;;6.20;;
57321;SDS011;43159;51.006;18.224;2022-07-06T07:03:58;13.10;;;5.60;;
57321;SDS011;43159;51.006;18.224;2022-07-06T07:06:42;11.60;;;5.20;;
57321;SDS011;43159;51.006;18.224;2022-07-06T07:09:26;11.60;;;5.20;;
57321;SDS011;43159;51.006;18.224;2022-07-06T07:12:11;11.40;;;5.10;;
57321;SDS011;43159;51.006;18.224;2022-07-06T07:14:55;12.00;;;5.30;;
57321;SDS011;43159;51.006;18.224;2022-07-06T07:17:40;12.20;;;5.30;;
57321;SDS011;43159;51.006;18.224;2022-07-06T07:20:25;13.30;;;5.50;;
57321;SDS011;43159;51.006;18.224;2022-07-06T07:23:09;13.10;;;5.70;;
57321;SDS011;43159;51.006;18.224;2022-07-06T07:25:53;13.50;;;5.70;;
57321;SDS011;43159;51.006;18.224;2022-07-06T07:28:37;12.20;;;5.70;;
57321;SDS011;43159;51.006;18.224;2022-07-06T07:31:21;14.20;;;6.10;;
57321;SDS011;43159;51.006;18.224;2022-07-06T07:34:05;15.00;;;6.60;;
57321;SDS011;43159;51.006;18.224;2022-07-06T07:36:49;17.70;;;7.00;;
57321;SDS011;43159;51.006;18.224;2022-07-06T07:39:33;14.80;;;6.90;;
57321;SDS011;43159;51.006;18.224;2022-07-06T07:42:18;16.10;;;8.40;;
57321;SDS011;43159;51.006;18.224;2022-07-06T07:45:02;17.00;;;8.00;;
57321;SDS011;43159;51.006;18.224;2022-07-06T07:47:46;20.60;;;8.30;;
57321;SDS011;43159;51.006;18.224;2022-07-06T07:50:30;17.70;;;8.20;;
57321;SDS011;43159;51.006;18.224;2022-07-06T07:53:17;15.90;;;8.80;;
57321;SDS011;43159;51.006;18.224;2022-07-06T07:56:01;14.90;;;8.70;;
57321;SDS011;43159;51.006;18.224;2022-07-06T07:58:45;16.90;;;9.80;;
57321;SDS011;43159;51.006;18.224;2022-07-06T08:01:29;19.10;;;11.30;;
57321;SDS011;43159;51.006;18.224;2022-07-06T08:04:14;18.30;;;12.00;;
57321;SDS011;43159;51.006;18.224;2022-07-06T08:06:57;17.90;;;11.30;;
57321;SDS011;43159;51.006;18.224;2022-07-06T08:09:42;19.50;;;11.70;;
57321;SDS011;43159;51.006;18.224;2022-07-06T08:12:25;19.30;;;13.40;;
57321;SDS011;43159;51.006;18.224;2022-07-06T08:15:10;18.80;;;12.90;;
57321;SDS011;43159;51.006;18.224;2022-07-06T08:17:54;17.40;;;12.00;;
57321;SDS011;43159;51.006;18.224;2022-07-06T08:20:38;18.20;;;11.40;;
57321;SDS011;43159;51.006;18.224;2022-07-06T08:23:22;17.70;;;11.20;;
57321;SDS011;43159;51.006;18.224;2022-07-06T08:26:07;18.00;;;11.20;;
57321;SDS011;43159;51.006;18.224;2022-07-06T08:28:51;15.70;;;10.60;;
57321;SDS011;43159;51.006;18.224;2022-07-06T08:31:36;15.90;;;10.50;;
57321;SDS011;43159;51.006;18.224;2022-07-06T08:34:20;16.90;;;10.60;;
57321;SDS011;43159;51.006;18.224;2022-07-06T08:37:05;16.30;;;9.40;;
57321;SDS011;43159;51.006;18.224;2022-07-06T08:39:49;17.30;;;10.70;;
57321;SDS011;43159;51.006;18.224;2022-07-06T08:42:34;14.80;;;9.90;;
57321;SDS011;43159;51.006;18.224;2022-07-06T08:45:19;15.20;;;9.00;;
57321;SDS011;43159;51.006;18.224;2022-07-06T08:48:04;15.30;;;9.00;;
57321;SDS011;43159;51.006;18.224;2022-07-06T08:50:49;15.40;;;8.80;;
57321;SDS011;43159;51.006;18.224;2022-07-06T08:53:34;14.30;;;8.60;;
57321;SDS011;43159;51.006;18.224;2022-07-06T08:56:19;14.20;;;8.00;;
57321;SDS011;43159;51.006;18.224;2022-07-06T08:59:03;12.80;;;7.50;;
57321;SDS011;43159;51.006;18.224;2022-07-06T09:01:47;11.90;;;6.10;;
57321;SDS011;43159;51.006;18.224;2022-07-06T09:04:35;12.60;;;6.60;;
57321;SDS011;43159;51.006;18.224;2022-07-06T09:07:20;12.40;;;6.00;;
57321;SDS011;43159;51.006;18.224;2022-07-06T09:10:04;11.10;;;5.70;;
57321;SDS011;43159;51.006;18.224;2022-07-06T09:12:49;11.90;;;5.40;;
57321;SDS011;43159;51.006;18.224;2022-07-06T09:15:34;10.00;;;4.60;;
57321;SDS011;43159;51.006;18.224;2022-07-06T09:18:21;8.80;;;3.80;;
57321;SDS011;43159;51.006;18.224;2022-07-06T09:21:05;9.30;;;3.20;;
57321;SDS011;43159;51.006;18.224;2022-07-06T09:23:53;8.40;;;3.00;;
57321;SDS011;43159;51.006;18.224;2022-07-06T09:26:41;7.10;;;2.10;;
57321;SDS011;43159;51.006;18.224;2022-07-06T09:29:28;6.80;;;2.30;;
57321;SDS011;43159;51.006;18.224;2022-07-06T09:32:13;7.00;;;2.20;;
57321;SDS011;43159;51.006;18.224;2022-07-06T09:35:04;7.90;;;2.30;;
57321;SDS011;43159;51.006;18.224;2022-07-06T09:40:51;7.70;;;2.10;;
57321;SDS011;43159;51.006;18.224;2022-07-06T09:43:35;7.10;;;2.30;;
57321;SDS011;43159;51.006;18.224;2022-07-06T09:46:20;7.20;;;2.10;;
57321;SDS011;43159;51.006;18.224;2022-07-06T09:49:04;7.90;;;2.40;;
57321;SDS011;43159;51.006;18.224;2022-07-06T09:51:51;7.30;;;2.20;;
57321;SDS011;43159;51.006;18.224;2022-07-06T09:54:42;8.00;;;2.20;;
57321;SDS011;43159;51.006;18.224;2022-07-06T09:57:26;7.10;;;2.30;;
57321;SDS011;43159;51.006;18.224;2022-07-06T10:00:10;8.20;;;2.40;;
57321;SDS011;43159;51.006;18.224;2022-07-06T10:02:55;6.70;;;2.20;;
57321;SDS011;43159;51.006;18.224;2022-07-06T10:05:40;9.30;;;2.60;;
57321;SDS011;43159;51.006;18.224;2022-07-06T10:08:26;7.70;;;2.40;;
57321;SDS011;43159;51.006;18.224;2022-07-06T10:11:10;8.30;;;2.60;;
57321;SDS011;43159;51.006;18.224;2022-07-06T10:13:58;9.70;;;3.00;;
57321;SDS011;43159;51.006;18.224;2022-07-06T10:16:46;9.80;;;3.10;;
57321;SDS011;43159;51.006;18.224;2022-07-06T10:19:30;11.80;;;3.40;;
57321;SDS011;43159;51.006;18.224;2022-07-06T10:22:15;9.60;;;3.40;;
57321;SDS011;43159;51.006;18.224;2022-07-06T10:25:02;9.40;;;3.30;;
57321;SDS011;43159;51.006;18.224;2022-07-06T10:27:47;10.20;;;3.40;;
57321;SDS011;43159;51.006;18.224;2022-07-06T10:30:31;10.30;;;3.20;;
57321;SDS011;43159;51.006;18.224;2022-07-06T10:33:16;10.00;;;3.00;;
57321;SDS011;43159;51.006;18.224;2022-07-06T10:36:01;11.20;;;3.00;;
57321;SDS011;43159;51.006;18.224;2022-07-06T10:38:48;8.70;;;3.00;;
57321;SDS011;43159;51.006;18.224;2022-07-06T10:41:34;9.60;;;2.90;;
57321;SDS011;43159;51.006;18.224;2022-07-06T10:44:22;9.00;;;2.90;;
57321;SDS011;43159;51.006;18.224;2022-07-06T10:47:09;9.60;;;3.20;;
57321;SDS011;43159;51.006;18.224;2022-07-06T10:49:54;9.70;;;3.20;;
57321;SDS011;43159;51.006;18.224;2022-07-06T10:52:57;9.80;;;3.40;;
57321;SDS011;43159;51.006;18.224;2022-07-06T10:55:43;10.20;;;3.90;;
57321;SDS011;43159;51.006;18.224;2022-07-06T11:01:19;10.10;;;3.80;;
57321;SDS011;43159;51.006;18.224;2022-07-06T11:04:08;9.80;;;3.90;;
57321;SDS011;43159;51.006;18.224;2022-07-06T11:06:52;9.80;;;3.50;;
57321;SDS011;43159;51.006;18.224;2022-07-06T11:09:36;9.80;;;3.60;;
57321;SDS011;43159;51.006;18.224;2022-07-06T11:12:22;10.80;;;3.30;;
57321;SDS011;43159;51.006;18.224;2022-07-06T11:15:06;10.70;;;3.30;;
57321;SDS011;43159;51.006;18.224;2022-07-06T11:23:58;11.40;;;3.60;;
57321;SDS011;43159;51.006;18.224;2022-07-06T11:26:43;10.70;;;3.40;;
57321;SDS011;43159;51.006;18.224;2022-07-06T11:29:30;10.50;;;3.30;;
57321;SDS011;43159;51.006;18.224;2022-07-06T11:32:14;9.00;;;3.10;;
57321;SDS011;43159;51.006;18.224;2022-07-06T11:34:58;10.00;;;3.50;;
57321;SDS011;43159;51.006;18.224;2022-07-06T11:37:42;8.70;;;3.20;;
57321;SDS011;43159;51.006;18.224;2022-07-06T11:40:27;10.60;;;3.20;;
57321;SDS011;43159;51.006;18.224;2022-07-06T11:43:11;8.60;;;2.70;;
57321;SDS011;43159;51.006;18.224;2022-07-06T11:45:55;10.00;;;2.90;;
57321;SDS011;43159;51.006;18.224;2022-07-06T11:48:44;8.80;;;2.60;;
57321;SDS011;43159;51.006;18.224;2022-07-06T11:51:30;9.80;;;2.60;;
57321;SDS011;43159;51.006;18.224;2022-07-06T11:54:20;8.80;;;2.40;;
57321;SDS011;43159;51.006;18.224;2022-07-06T11:57:06;8.10;;;2.40;;
57321;SDS011;43159;51.006;18.224;2022-07-06T11:59:51;8.80;;;2.60;;
57321;SDS011;43159;51.006;18.224;2022-07-06T12:02:36;8.90;;;2.50;;
57321;SDS011;43159;51.006;18.224;2022-07-06T12:05:30;8.90;;;2.70;;
57321;SDS011;43159;51.006;18.224;2022-07-06T12:08:14;8.10;;;2.30;;
57321;SDS011;43159;51.006;18.224;2022-07-06T12:10:58;9.30;;;2.40;;
57321;SDS011;43159;51.006;18.224;2022-07-06T12:13:42;9.10;;;2.60;;
57321;SDS011;43159;51.006;18.224;2022-07-06T12:16:31;7.80;;;2.40;;
57321;SDS011;43159;51.006;18.224;2022-07-06T12:19:19;7.90;;;2.40;;
57321;SDS011;43159;51.006;18.224;2022-07-06T12:22:05;7.20;;;2.20;;
57321;SDS011;43159;51.006;18.224;2022-07-06T12:24:50;6.50;;;2.00;;
57321;SDS011;43159;51.006;18.224;2022-07-06T12:27:34;7.90;;;2.10;;
57321;SDS011;43159;51.006;18.224;2022-07-06T12:30:19;8.50;;;2.10;;
57321;SDS011;43159;51.006;18.224;2022-07-06T12:33:13;7.90;;;2.10;;
57321;SDS011;43159;51.006;18.224;2022-07-06T12:36:12;11.20;;;2.20;;
57321;SDS011;43159;51.006;18.224;2022-07-06T12:38:57;13.50;;;2.40;;
57321;SDS011;43159;51.006;18.224;2022-07-06T12:44:31;7.80;;;2.10;;
57321;SDS011;43159;51.006;18.224;2022-07-06T12:47:19;8.70;;;2.40;;
57321;SDS011;43159;51.006;18.224;2022-07-06T12:50:10;8.60;;;2.60;;
57321;SDS011;43159;51.006;18.224;2022-07-06T12:52:55;9.80;;;2.80;;
57321;SDS011;43159;51.006;18.224;2022-07-06T12:55:39;11.30;;;3.00;;
57321;SDS011;43159;51.006;18.224;2022-07-06T12:58:23;13.30;;;3.70;;
57321;SDS011;43159;51.006;18.224;2022-07-06T13:01:13;12.70;;;3.70;;
57321;SDS011;43159;51.006;18.224;2022-07-06T13:03:58;11.50;;;3.40;;
57321;SDS011;43159;51.006;18.224;2022-07-06T13:06:42;12.30;;;3.40;;
57321;SDS011;43159;51.006;18.224;2022-07-06T13:09:27;10.30;;;2.90;;
57321;SDS011;43159;51.006;18.224;2022-07-06T13:12:12;10.30;;;3.20;;
57321;SDS011;43159;51.006;18.224;2022-07-06T13:14:56;11.20;;;3.10;;
57321;SDS011;43159;51.006;18.224;2022-07-06T13:17:41;8.80;;;2.70;;
57321;SDS011;43159;51.006;18.224;2022-07-06T13:20:26;8.70;;;2.60;;
57321;SDS011;43159;51.006;18.224;2022-07-06T13:23:12;10.60;;;2.40;;
57321;SDS011;43159;51.006;18.224;2022-07-06T13:25:56;9.20;;;2.70;;
57321;SDS011;43159;51.006;18.224;2022-07-06T13:28:40;8.40;;;2.50;;
57321;SDS011;43159;51.006;18.224;2022-07-06T13:31:24;8.50;;;2.30;;
57321;SDS011;43159;51.006;18.224;2022-07-06T13:34:09;8.50;;;2.50;;
57321;SDS011;43159;51.006;18.224;2022-07-06T13:36:53;7.40;;;2.30;;
57321;SDS011;43159;51.006;18.224;2022-07-06T13:39:38;8.90;;;2.30;;
57321;SDS011;43159;51.006;18.224;2022-07-06T13:42:22;6.70;;;2.00;;
57321;SDS011;43159;51.006;18.224;2022-07-06T13:45:06;7.50;;;2.10;;
57321;SDS011;43159;51.006;18.224;2022-07-06T13:47:51;6.90;;;2.10;;
57321;SDS011;43159;51.006;18.224;2022-07-06T13:50:35;7.90;;;2.30;;
57321;SDS011;43159;51.006;18.224;2022-07-06T13:53:19;7.90;;;2.10;;
57321;SDS011;43159;51.006;18.224;2022-07-06T13:56:03;7.70;;;2.10;;
57321;SDS011;43159;51.006;18.224;2022-07-06T13:58:48;6.80;;;2.00;;
57321;SDS011;43159;51.006;18.224;2022-07-06T14:01:32;7.00;;;1.80;;
57321;SDS011;43159;51.006;18.224;2022-07-06T14:04:16;6.50;;;1.90;;
57321;SDS011;43159;51.006;18.224;2022-07-06T14:07:00;6.50;;;2.00;;
57321;SDS011;43159;51.006;18.224;2022-07-06T14:09:45;6.70;;;1.90;;
57321;SDS011;43159;51.006;18.224;2022-07-06T14:12:29;8.90;;;2.20;;
57321;SDS011;43159;51.006;18.224;2022-07-06T14:15:13;7.30;;;2.10;;
57321;SDS011;43159;51.006;18.224;2022-07-06T14:17:57;7.80;;;2.10;;
57321;SDS011;43159;51.006;18.224;2022-07-06T14:20:41;7.50;;;2.00;;
57321;SDS011;43159;51.006;18.224;2022-07-06T14:23:26;6.80;;;1.90;;
57321;SDS011;43159;51.006;18.224;2022-07-06T14:26:13;7.30;;;2.10;;
57321;SDS011;43159;51.006;18.224;2022-07-06T14:28:57;7.40;;;2.00;;
57321;SDS011;43159;51.006;18.224;2022-07-06T14:31:42;7.20;;;2.00;;
57321;SDS011;43159;51.006;18.224;2022-07-06T14:34:26;6.40;;;1.90;;
57321;SDS011;43159;51.006;18.224;2022-07-06T14:37:10;6.40;;;1.80;;
57321;SDS011;43159;51.006;18.224;2022-07-06T14:39:54;6.30;;;1.80;;
57321;SDS011;43159;51.006;18.224;2022-07-06T14:42:38;9.80;;;2.00;;
57321;SDS011;43159;51.006;18.224;2022-07-06T14:45:22;7.80;;;2.00;;
57321;SDS011;43159;51.006;18.224;2022-07-06T14:48:06;6.00;;;1.80;;
57321;SDS011;43159;51.006;18.224;2022-07-06T14:50:50;6.60;;;1.90;;
57321;SDS011;43159;51.006;18.224;2022-07-06T14:53:34;8.30;;;1.80;;
57321;SDS011;43159;51.006;18.224;2022-07-06T14:56:18;6.80;;;1.80;;
57321;SDS011;43159;51.006;18.224;2022-07-06T14:59:02;7.70;;;2.00;;
57321;SDS011;43159;51.006;18.224;2022-07-06T15:01:46;7.90;;;2.00;;
57321;SDS011;43159;51.006;18.224;2022-07-06T15:04:30;8.20;;;1.90;;
57321;SDS011;43159;51.006;18.224;2022-07-06T15:07:16;6.50;;;2.00;;
57321;SDS011;43159;51.006;18.224;2022-07-06T15:10:01;7.40;;;1.80;;
57321;SDS011;43159;51.006;18.224;2022-07-06T15:12:46;7.00;;;1.80;;
57321;SDS011;43159;51.006;18.224;2022-07-06T15:15:31;8.00;;;2.00;;
57321;SDS011;43159;51.006;18.224;2022-07-06T15:18:15;6.50;;;1.90;;
57321;SDS011;43159;51.006;18.224;2022-07-06T15:20:59;9.70;;;2.00;;
57321;SDS011;43159;51.006;18.224;2022-07-06T15:23:44;7.60;;;1.90;;
57321;SDS011;43159;51.006;18.224;2022-07-06T15:26:28;9.30;;;1.90;;
57321;SDS011;43159;51.006;18.224;2022-07-06T15:29:12;6.40;;;1.70;;
57321;SDS011;43159;51.006;18.224;2022-07-06T15:31:56;6.90;;;1.90;;
57321;SDS011;43159;51.006;18.224;2022-07-06T15:34:41;6.50;;;1.90;;
57321;SDS011;43159;51.006;18.224;2022-07-06T15:37:25;7.50;;;1.80;;
57321;SDS011;43159;51.006;18.224;2022-07-06T15:40:09;6.60;;;1.90;;
57321;SDS011;43159;51.006;18.224;2022-07-06T15:42:59;8.40;;;2.10;;
57321;SDS011;43159;51.006;18.224;2022-07-06T15:45:43;9.40;;;2.10;;
57321;SDS011;43159;51.006;18.224;2022-07-06T15:48:27;6.90;;;1.90;;
57321;SDS011;43159;51.006;18.224;2022-07-06T15:51:12;7.40;;;2.00;;
57321;SDS011;43159;51.006;18.224;2022-07-06T15:53:56;6.00;;;1.70;;
57321;SDS011;43159;51.006;18.224;2022-07-06T15:56:41;6.60;;;1.90;;
57321;SDS011;43159;51.006;18.224;2022-07-06T15:59:25;6.90;;;1.90;;
57321;SDS011;43159;51.006;18.224;2022-07-06T16:02:09;5.90;;;1.70;;
57321;SDS011;43159;51.006;18.224;2022-07-06T16:04:53;7.10;;;1.90;;
57321;SDS011;43159;51.006;18.224;2022-07-06T16:07:38;6.80;;;1.80;;
57321;SDS011;43159;51.006;18.224;2022-07-06T16:10:22;7.80;;;2.00;;
57321;SDS011;43159;51.006;18.224;2022-07-06T16:13:07;8.10;;;2.00;;
57321;SDS011;43159;51.006;18.224;2022-07-06T16:15:51;9.00;;;2.00;;
57321;SDS011;43159;51.006;18.224;2022-07-06T16:18:35;7.50;;;1.90;;